Time;durP1;ratioP1;P1;durP2;ratioP2;P2;SDS_P1;SDS_P2;PMS_P1;PMS_P2;Temp;Humidity;BMP_temperature;BMP_pressure;BME280_temperature;BME280_humidity;BME280_pressure;Samples;Min_cycle;Max_cycle;Signal;HPM_P1;HPM_P2
2022/05/15 00:00:42;;;;;;;9.80;3.37;;;;;;;;;;4988200;28;20691;-71
2022/05/15 00:03:16;;;;;;;6.27;3.07;;;;;;;;;;4979885;28;20221;-73
2022/05/15 00:05:41;;;;;;;9.40;3.30;;;;;;;;;;4981387;28;20698;-71
2022/05/15 00:08:09;;;;;;;6.53;3.50;;;;;;;;;;4967205;28;20229;-71
2022/05/15 00:10:39;;;;;;;6.40;3.10;;;;;;;;;;4948182;28;20316;-72
2022/05/15 00:13:05;;;;;;;6.97;3.50;;;;;;;;;;4979305;28;20225;-72
2022/05/15 00:15:32;;;;;;;8.83;3.43;;;;;;;;;;4999890;28;20710;-71
2022/05/15 00:17:57;;;;;;;6.97;3.37;;;;;;;;;;4943402;28;20220;-71
2022/05/15 00:20:26;;;;;;;7.27;3.50;;;;;;;;;;4982370;28;20227;-71
2022/05/15 00:22:51;;;;;;;5.63;3.50;;;;;;;;;;4970265;28;20233;-71
2022/05/15 00:25:17;;;;;;;7.70;3.40;;;;;;;;;;4971904;28;20244;-71
2022/05/15 00:27:42;;;;;;;8.17;3.40;;;;;;;;;;4951787;28;20248;-70
2022/05/15 00:30:09;;;;;;;7.00;3.50;;;;;;;;;;4957399;28;20739;-71
2022/05/15 00:32:34;;;;;;;7.33;3.70;;;;;;;;;;4974805;28;20228;-71
2022/05/15 00:35:02;;;;;;;7.53;3.33;;;;;;;;;;4990550;28;20757;-71
2022/05/15 00:37:29;;;;;;;7.70;3.80;;;;;;;;;;4978294;28;20263;-70
2022/05/15 00:39:55;;;;;;;8.03;3.70;;;;;;;;;;4971931;28;20218;-70
2022/05/15 00:42:20;;;;;;;9.50;3.33;;;;;;;;;;4984583;28;20717;-71
2022/05/15 00:44:48;;;;;;;7.77;3.80;;;;;;;;;;4990697;28;20240;-71
2022/05/15 00:47:14;;;;;;;6.63;3.47;;;;;;;;;;4938189;28;20313;-71
2022/05/15 00:49:42;;;;;;;8.33;3.60;;;;;;;;;;4987908;28;20233;-70
2022/05/15 00:52:09;;;;;;;8.67;3.73;;;;;;;;;;4967095;28;20222;-71
2022/05/15 00:54:37;;;;;;;7.23;3.80;;;;;;;;;;4968381;28;20252;-71
2022/05/15 00:57:26;;;;;;;6.70;3.47;;;;;;;;;;4949898;28;20221;-71
2022/05/15 01:00:04;;;;;;;7.37;3.47;;;;;;;;;;5000923;28;20225;-71
2022/05/15 01:02:35;;;;;;;8.70;3.80;;;;;;;;;;4980513;28;20226;-71
2022/05/15 01:05:04;;;;;;;5.27;3.37;;;;;;;;;;4979412;28;20229;-72
2022/05/15 01:07:29;;;;;;;9.37;3.57;;;;;;;;;;4983443;28;20230;-71
2022/05/15 01:09:55;;;;;;;6.67;3.83;;;;;;;;;;4966263;28;20742;-72
2022/05/15 01:12:22;;;;;;;7.67;3.70;;;;;;;;;;4966891;28;20233;-72
2022/05/15 01:14:48;;;;;;;6.87;3.70;;;;;;;;;;4958951;28;20294;-71
2022/05/15 01:17:14;;;;;;;10.33;4.07;;;;;;;;;;4980402;28;20256;-71
2022/05/15 01:19:41;;;;;;;6.30;3.53;;;;;;;;;;4989288;28;20285;-71
2022/05/15 01:22:11;;;;;;;7.93;3.50;;;;;;;;;;4946369;28;20222;-71
2022/05/15 01:24:36;;;;;;;7.00;3.43;;;;;;;;;;4963344;28;20607;-71
2022/05/15 01:27:05;;;;;;;7.47;3.17;;;;;;;;;;4952280;28;20271;-71
2022/05/15 01:29:37;;;;;;;5.40;3.63;;;;;;;;;;4949711;28;20289;-71
2022/05/15 01:32:03;;;;;;;7.40;3.83;;;;;;;;;;4958279;28;20221;-72
2022/05/15 01:34:31;;;;;;;7.03;3.43;;;;;;;;;;4965576;28;20233;-72
2022/05/15 01:36:59;;;;;;;7.90;4.07;;;;;;;;;;4941189;28;20239;-71
2022/05/15 01:39:28;;;;;;;7.00;3.80;;;;;;;;;;4966113;28;20221;-70
2022/05/15 01:41:54;;;;;;;9.07;4.10;;;;;;;;;;4973579;28;20610;-71
2022/05/15 01:44:20;;;;;;;9.80;4.03;;;;;;;;;;4953005;28;20295;-71
2022/05/15 01:46:49;;;;;;;6.77;3.70;;;;;;;;;;4978253;28;20236;-71
2022/05/15 01:49:17;;;;;;;7.90;3.83;;;;;;;;;;4978553;28;20217;-71
2022/05/15 01:51:45;;;;;;;7.63;3.73;;;;;;;;;;4964676;28;20703;-72
2022/05/15 01:54:13;;;;;;;10.20;4.03;;;;;;;;;;4959649;28;20272;-71
2022/05/15 01:56:39;;;;;;;9.57;3.83;;;;;;;;;;4954680;28;20224;-72
2022/05/15 01:59:08;;;;;;;8.67;4.40;;;;;;;;;;4959170;28;20228;-72
2022/05/15 02:01:37;;;;;;;9.03;4.00;;;;;;;;;;4960624;28;20214;-71
2022/05/15 02:04:03;;;;;;;7.70;4.40;;;;;;;;;;4958301;28;20289;-71
2022/05/15 02:06:29;;;;;;;8.37;4.30;;;;;;;;;;4975743;28;20272;-72
2022/05/15 02:08:57;;;;;;;7.63;3.60;;;;;;;;;;4978303;28;20229;-71
2022/05/15 02:11:25;;;;;;;7.03;3.90;;;;;;;;;;4990772;28;20235;-72
2022/05/15 02:13:53;;;;;;;9.50;4.17;;;;;;;;;;4974544;28;20648;-70
2022/05/15 02:16:20;;;;;;;7.23;3.87;;;;;;;;;;4966946;28;20655;-70
2022/05/15 02:18:45;;;;;;;7.83;4.03;;;;;;;;;;4971223;28;20225;-71
2022/05/15 02:21:14;;;;;;;7.87;4.10;;;;;;;;;;4954856;28;20312;-71
2022/05/15 02:23:40;;;;;;;5.33;3.80;;;;;;;;;;4972093;28;20217;-71
2022/05/15 02:26:05;;;;;;;8.33;3.70;;;;;;;;;;4976041;28;20239;-71
2022/05/15 02:28:34;;;;;;;8.67;4.00;;;;;;;;;;5002836;28;20292;-71
2022/05/15 02:31:00;;;;;;;9.53;3.80;;;;;;;;;;4979659;28;20217;-71
2022/05/15 02:33:27;;;;;;;9.00;4.20;;;;;;;;;;4971807;28;20329;-71
2022/05/15 02:35:53;;;;;;;8.47;4.10;;;;;;;;;;4972632;28;20233;-71
2022/05/15 02:38:21;;;;;;;7.77;3.73;;;;;;;;;;4964359;28;20222;-71
2022/05/15 02:40:48;;;;;;;5.77;3.90;;;;;;;;;;4978356;28;20214;-72
2022/05/15 02:43:14;;;;;;;6.60;3.70;;;;;;;;;;4948879;28;20222;-71
2022/05/15 02:45:45;;;;;;;9.77;4.33;;;;;;;;;;4961901;28;20317;-72
2022/05/15 02:51:03;;;;;;;7.37;4.07;;;;;;;;;;4959966;28;20222;-71
2022/05/15 02:51:05;;;;;;;6.57;3.77;;;;;;;;;;4984985;28;20229;-72
2022/05/15 02:53:44;;;;;;;8.00;4.10;;;;;;;;;;4959903;28;20236;-71
2022/05/15 02:56:27;;;;;;;7.53;3.80;;;;;;;;;;4952241;28;20228;-71
2022/05/15 02:58:53;;;;;;;6.57;3.80;;;;;;;;;;4962778;28;20222;-72
2022/05/15 03:01:20;;;;;;;7.03;3.80;;;;;;;;;;4968114;28;20671;-71
2022/05/15 03:03:48;;;;;;;6.70;3.73;;;;;;;;;;4962713;28;20224;-71
2022/05/15 03:06:17;;;;;;;6.53;3.90;;;;;;;;;;4971876;28;20231;-73
2022/05/15 03:08:49;;;;;;;6.30;3.90;;;;;;;;;;4977548;28;20224;-71
2022/05/15 03:11:14;;;;;;;9.60;4.00;;;;;;;;;;4984030;28;20233;-71
2022/05/15 03:13:41;;;;;;;6.10;4.10;;;;;;;;;;4968531;28;20285;-71
2022/05/15 03:16:09;;;;;;;7.80;4.03;;;;;;;;;;4964115;28;20232;-70
2022/05/15 03:18:40;;;;;;;8.83;4.57;;;;;;;;;;4969408;28;20229;-71
2022/05/15 03:21:06;;;;;;;6.47;4.17;;;;;;;;;;4963214;28;20228;-70
2022/05/15 03:23:33;;;;;;;6.80;3.93;;;;;;;;;;4970677;28;20592;-71
2022/05/15 03:25:58;;;;;;;8.33;4.00;;;;;;;;;;4984656;28;20230;-71
2022/05/15 03:28:31;;;;;;;7.87;3.73;;;;;;;;;;4971443;28;20225;-72
2022/05/15 03:30:59;;;;;;;7.23;3.60;;;;;;;;;;4971644;28;20248;-72
2022/05/15 03:33:29;;;;;;;5.70;3.70;;;;;;;;;;4955269;28;20218;-70
2022/05/15 03:35:57;;;;;;;9.50;3.80;;;;;;;;;;4956824;28;20706;-70
2022/05/15 03:38:28;;;;;;;8.17;3.80;;;;;;;;;;4964708;28;20224;-71
2022/05/15 03:40:53;;;;;;;6.70;3.63;;;;;;;;;;4982395;28;20232;-72
2022/05/15 03:43:21;;;;;;;8.33;3.80;;;;;;;;;;4996455;28;20224;-72
2022/05/15 03:45:48;;;;;;;6.13;3.43;;;;;;;;;;4954194;28;20212;-69
2022/05/15 03:48:16;;;;;;;5.53;3.57;;;;;;;;;;4963874;28;20704;-71
2022/05/15 03:50:42;;;;;;;6.80;3.77;;;;;;;;;;4998743;28;20748;-71
2022/05/15 03:53:07;;;;;;;6.23;3.40;;;;;;;;;;4954471;28;20304;-71
2022/05/15 03:55:33;;;;;;;6.53;3.53;;;;;;;;;;4979551;28;20229;-70
2022/05/15 03:58:00;;;;;;;6.90;3.50;;;;;;;;;;4965751;28;20223;-70
2022/05/15 04:00:28;;;;;;;6.23;4.10;;;;;;;;;;4966567;28;20595;-72
2022/05/15 04:02:56;;;;;;;8.03;3.80;;;;;;;;;;4968187;28;20610;-71
2022/05/15 04:05:21;;;;;;;7.07;3.93;;;;;;;;;;4969808;28;20311;-72
2022/05/15 04:07:48;;;;;;;11.77;4.20;;;;;;;;;;4981584;28;20265;-71
2022/05/15 04:10:20;;;;;;;6.97;3.83;;;;;;;;;;4950720;28;20649;-71
2022/05/15 04:12:45;;;;;;;8.70;3.97;;;;;;;;;;4953378;28;20309;-72
2022/05/15 04:15:16;;;;;;;7.70;4.00;;;;;;;;;;4965000;28;20234;-71
2022/05/15 04:17:46;;;;;;;4.30;3.77;;;;;;;;;;4968982;28;20769;-71
2022/05/15 04:20:14;;;;;;;6.40;3.37;;;;;;;;;;4954013;28;20210;-72
2022/05/15 04:22:42;;;;;;;5.97;3.57;;;;;;;;;;4950030;28;20278;-71
2022/05/15 04:25:11;;;;;;;6.70;4.00;;;;;;;;;;4965269;28;20932;-72
2022/05/15 04:27:40;;;;;;;5.63;3.67;;;;;;;;;;4982876;28;20580;-71
2022/05/15 04:30:06;;;;;;;6.63;4.07;;;;;;;;;;4973794;28;20758;-71
2022/05/15 04:32:35;;;;;;;6.00;3.77;;;;;;;;;;4968038;28;20221;-71
2022/05/15 04:35:00;;;;;;;6.80;3.47;;;;;;;;;;4994179;28;20236;-71
2022/05/15 04:37:26;;;;;;;7.13;3.50;;;;;;;;;;4967911;28;20276;-72
2022/05/15 04:39:54;;;;;;;6.77;3.80;;;;;;;;;;4962206;28;20222;-71
2022/05/15 04:42:22;;;;;;;6.23;3.80;;;;;;;;;;4993102;28;20283;-71
2022/05/15 04:44:48;;;;;;;6.53;3.60;;;;;;;;;;4994632;28;20213;-72
2022/05/15 04:47:13;;;;;;;6.17;3.47;;;;;;;;;;4979086;28;20818;-71
2022/05/15 04:49:39;;;;;;;8.43;3.67;;;;;;;;;;5000306;28;20230;-70
2022/05/15 04:52:07;;;;;;;7.73;3.83;;;;;;;;;;4996897;28;20317;-71
2022/05/15 04:54:32;;;;;;;8.57;3.67;;;;;;;;;;4946510;28;20237;-72
2022/05/15 04:56:58;;;;;;;7.70;4.03;;;;;;;;;;4966089;28;20268;-71
2022/05/15 04:59:26;;;;;;;9.60;4.17;;;;;;;;;;4982052;28;20679;-71
2022/05/15 05:01:54;;;;;;;9.30;4.40;;;;;;;;;;4976634;28;20287;-71
2022/05/15 05:04:19;;;;;;;8.27;4.00;;;;;;;;;;4960558;28;20220;-72
2022/05/15 05:06:45;;;;;;;7.50;3.93;;;;;;;;;;4996694;28;20243;-71
2022/05/15 05:09:11;;;;;;;8.63;3.80;;;;;;;;;;4989003;28;20308;-72
2022/05/15 05:11:41;;;;;;;8.67;4.30;;;;;;;;;;4981809;28;20598;-72
2022/05/15 05:14:07;;;;;;;8.83;3.93;;;;;;;;;;4977894;28;20225;-71
2022/05/15 05:16:33;;;;;;;7.93;4.23;;;;;;;;;;4960813;28;20295;-71
2022/05/15 05:19:02;;;;;;;10.10;3.97;;;;;;;;;;4974703;28;20228;-72
2022/05/15 05:21:29;;;;;;;8.03;3.83;;;;;;;;;;4993333;28;20887;-72
2022/05/15 05:23:55;;;;;;;11.13;4.07;;;;;;;;;;5001933;28;20255;-71
2022/05/15 05:26:22;;;;;;;9.63;4.13;;;;;;;;;;4968056;28;20703;-73
2022/05/15 05:28:50;;;;;;;7.00;3.83;;;;;;;;;;4998738;28;20236;-71
2022/05/15 05:31:16;;;;;;;8.60;3.73;;;;;;;;;;4980940;28;20233;-71
2022/05/15 05:33:44;;;;;;;11.57;4.67;;;;;;;;;;4984998;28;20752;-72
2022/05/15 05:36:11;;;;;;;8.40;4.83;;;;;;;;;;4961717;28;20235;-72
2022/05/15 05:38:38;;;;;;;9.03;4.70;;;;;;;;;;4956907;28;20268;-71
2022/05/15 05:41:04;;;;;;;8.77;4.57;;;;;;;;;;4966428;28;20641;-71
2022/05/15 05:43:29;;;;;;;7.80;4.43;;;;;;;;;;4960720;28;20221;-71
2022/05/15 05:45:57;;;;;;;10.13;4.80;;;;;;;;;;4985700;28;20300;-71
2022/05/15 05:48:26;;;;;;;11.30;4.53;;;;;;;;;;4978319;28;20214;-71
2022/05/15 05:50:56;;;;;;;9.43;4.50;;;;;;;;;;4961627;28;20222;-71
2022/05/15 05:53:21;;;;;;;9.73;4.80;;;;;;;;;;4968721;28;20257;-71
2022/05/15 05:55:49;;;;;;;10.57;4.47;;;;;;;;;;4957449;28;20615;-72
2022/05/15 05:58:17;;;;;;;9.80;4.57;;;;;;;;;;4960743;28;20297;-71
2022/05/15 06:00:47;;;;;;;10.57;4.97;;;;;;;;;;4983739;28;20282;-70
2022/05/15 06:05:57;;;;;;;10.47;4.87;;;;;;;;;;4963441;28;20221;-72
2022/05/15 06:08:22;;;;;;;13.90;4.87;;;;;;;;;;4948217;28;20607;-71
2022/05/15 06:10:48;;;;;;;11.40;4.40;;;;;;;;;;4978122;28;20702;-71
2022/05/15 06:13:16;;;;;;;9.83;4.23;;;;;;;;;;4980190;28;20221;-71
2022/05/15 06:15:43;;;;;;;10.47;5.03;;;;;;;;;;4978475;28;20312;-72
2022/05/15 06:18:09;;;;;;;13.93;5.13;;;;;;;;;;4976941;28;20237;-71
2022/05/15 06:20:37;;;;;;;14.20;5.07;;;;;;;;;;4967082;28;20221;-72
2022/05/15 06:23:05;;;;;;;13.43;5.20;;;;;;;;;;4996166;28;20225;-72
2022/05/15 06:25:30;;;;;;;13.87;4.70;;;;;;;;;;5000020;28;20229;-72
2022/05/15 06:27:58;;;;;;;13.55;4.10;;;;;;;;;;4954414;28;20254;-71
2022/05/15 06:30:26;;;;;;;12.23;4.90;;;;;;;;;;4977442;28;20220;-73
2022/05/15 06:32:51;;;;;;;11.73;4.03;;;;;;;;;;4979072;28;20243;-71
2022/05/15 06:35:19;;;;;;;10.93;4.32;;;;;;;;;;4965277;28;20374;-71
2022/05/15 06:37:47;;;;;;;11.45;4.15;;;;;;;;;;4997816;28;20698;-71
2022/05/15 06:40:13;;;;;;;10.38;4.30;;;;;;;;;;4978865;28;20227;-72
2022/05/15 06:42:41;;;;;;;8.73;3.83;;;;;;;;;;4966753;28;20224;-73
2022/05/15 06:45:12;;;;;;;17.02;3.88;;;;;;;;;;4972336;28;20648;-71
2022/05/15 06:47:38;;;;;;;12.18;3.97;;;;;;;;;;4948355;28;20619;-72
2022/05/15 06:50:05;;;;;;;9.38;3.75;;;;;;;;;;4975350;28;20221;-72
2022/05/15 06:52:30;;;;;;;15.27;4.50;;;;;;;;;;4982368;28;20236;-71
2022/05/15 06:54:56;;;;;;;10.45;3.90;;;;;;;;;;4980874;28;20248;-72
2022/05/15 06:57:31;;;;;;;12.35;4.13;;;;;;;;;;4984508;28;20235;-71
2022/05/15 06:59:57;;;;;;;10.82;3.63;;;;;;;;;;4954188;28;20236;-71
2022/05/15 07:02:24;;;;;;;10.27;3.47;;;;;;;;;;4983542;28;20599;-72
2022/05/15 07:04:50;;;;;;;10.82;3.70;;;;;;;;;;4964704;28;20643;-71
2022/05/15 07:07:15;;;;;;;11.10;3.78;;;;;;;;;;4947454;28;20226;-71
2022/05/15 07:09:43;;;;;;;6.35;3.08;;;;;;;;;;4976058;28;20224;-71
2022/05/15 07:12:11;;;;;;;13.50;3.80;;;;;;;;;;4980524;28;20213;-71
2022/05/15 07:14:39;;;;;;;9.23;3.35;;;;;;;;;;4979024;28;20233;-72
2022/05/15 07:17:06;;;;;;;8.55;2.78;;;;;;;;;;4982104;28;20729;-71
2022/05/15 07:19:32;;;;;;;11.20;3.88;;;;;;;;;;4975784;28;20224;-72
2022/05/15 07:22:15;;;;;;;9.15;3.20;;;;;;;;;;4978716;28;20621;-71
2022/05/15 07:24:41;;;;;;;5.20;2.90;;;;;;;;;;4982081;28;20347;-72
2022/05/15 07:27:12;;;;;;;6.32;2.97;;;;;;;;;;4933470;28;20710;-71
2022/05/15 07:29:44;;;;;;;5.38;2.75;;;;;;;;;;4980214;28;20718;-72
2022/05/15 07:32:12;;;;;;;9.68;2.90;;;;;;;;;;4981701;28;20220;-72
2022/05/15 07:34:41;;;;;;;5.90;2.95;;;;;;;;;;4957449;28;20229;-72
2022/05/15 07:37:07;;;;;;;7.50;2.92;;;;;;;;;;4979088;28;20723;-71
2022/05/15 07:39:33;;;;;;;7.68;2.67;;;;;;;;;;4962115;28;20224;-71
2022/05/15 07:41:58;;;;;;;8.90;2.72;;;;;;;;;;4976688;28;20705;-72
2022/05/15 07:44:24;;;;;;;6.95;2.30;;;;;;;;;;4965099;28;20299;-71
2022/05/15 07:46:53;;;;;;;8.18;2.72;;;;;;;;;;4969730;28;20229;-69
2022/05/15 07:49:24;;;;;;;7.28;2.75;;;;;;;;;;4932978;28;20224;-70
2022/05/15 07:51:50;;;;;;;6.38;2.45;;;;;;;;;;4997913;28;20687;-71
2022/05/15 07:54:16;;;;;;;5.88;2.60;;;;;;;;;;4992615;28;20324;-71
2022/05/15 07:56:48;;;;;;;4.72;2.17;;;;;;;;;;4992386;28;20236;-70
2022/05/15 07:59:13;;;;;;;5.65;2.17;;;;;;;;;;4929653;28;20216;-73
2022/05/15 08:01:39;;;;;;;5.65;2.50;;;;;;;;;;4960744;28;20217;-72
2022/05/15 08:04:04;;;;;;;7.22;2.40;;;;;;;;;;4963648;28;20240;-72
2022/05/15 08:09:14;;;;;;;5.32;2.03;;;;;;;;;;4982560;28;20696;-70
2022/05/15 08:11:42;;;;;;;7.95;2.40;;;;;;;;;;4999165;28;20317;-72
2022/05/15 08:14:11;;;;;;;5.82;1.98;;;;;;;;;;4989522;28;20234;-72
2022/05/15 08:16:39;;;;;;;6.70;2.30;;;;;;;;;;4972621;28;20230;-74
2022/05/15 08:24:35;;;;;;;6.05;2.08;;;;;;;;;;4962319;28;20240;-71
2022/05/15 08:27:01;;;;;;;5.15;2.08;;;;;;;;;;4963827;28;20286;-73
2022/05/15 08:29:26;;;;;;;4.18;1.92;;;;;;;;;;4943822;28;20226;-71
2022/05/15 08:31:52;;;;;;;7.10;2.00;;;;;;;;;;4987907;28;20300;-71
2022/05/15 08:34:17;;;;;;;5.53;2.25;;;;;;;;;;4960065;28;20726;-71
2022/05/15 08:36:44;;;;;;;4.50;2.05;;;;;;;;;;4973554;28;20228;-71
2022/05/15 08:39:13;;;;;;;3.97;1.90;;;;;;;;;;4966452;28;20615;-70
2022/05/15 08:41:43;;;;;;;5.65;1.95;;;;;;;;;;4981765;28;20213;-71
2022/05/15 08:44:29;;;;;;;6.00;2.33;;;;;;;;;;4998163;28;20232;-71
2022/05/15 08:47:13;;;;;;;4.78;2.20;;;;;;;;;;4966314;28;20234;-72
2022/05/15 08:49:50;;;;;;;5.15;1.77;;;;;;;;;;4987011;28;20220;-71
2022/05/15 08:52:34;;;;;;;7.55;2.22;;;;;;;;;;4953648;28;20213;-72
2022/05/15 08:55:02;;;;;;;7.32;2.30;;;;;;;;;;4991307;28;20240;-72
2022/05/15 08:57:48;;;;;;;6.38;1.77;;;;;;;;;;4982733;28;20234;-70
2022/05/15 09:00:15;;;;;;;7.15;1.90;;;;;;;;;;4956866;28;20221;-69
2022/05/15 09:02:41;;;;;;;5.25;1.85;;;;;;;;;;4969294;28;20544;-71
2022/05/15 09:05:08;;;;;;;9.80;2.40;;;;;;;;;;4983041;28;20228;-72
2022/05/15 09:07:53;;;;;;;3.47;1.60;;;;;;;;;;4956269;28;20277;-72
2022/05/15 09:10:36;;;;;;;5.57;1.85;;;;;;;;;;4955304;28;20221;-70
2022/05/15 09:13:12;;;;;;;3.47;1.63;;;;;;;;;;4971872;28;20221;-71
2022/05/15 09:16:09;;;;;;;3.42;1.65;;;;;;;;;;4954213;28;20313;-72
2022/05/15 09:18:40;;;;;;;4.55;1.90;;;;;;;;;;4971152;28;20221;-71
2022/05/15 09:21:14;;;;;;;5.30;2.00;;;;;;;;;;4985683;28;20222;-73
2022/05/15 09:23:45;;;;;;;3.75;1.58;;;;;;;;;;4972676;28;20225;-72
2022/05/15 09:26:26;;;;;;;14.02;2.30;;;;;;;;;;4953129;28;20655;-72
2022/05/15 09:29:00;;;;;;;3.38;1.60;;;;;;;;;;4985356;28;20279;-71
2022/05/15 09:31:29;;;;;;;5.22;1.55;;;;;;;;;;4971693;28;20533;-72
2022/05/15 09:34:00;;;;;;;4.15;1.70;;;;;;;;;;4986587;28;20226;-71
2022/05/15 09:36:29;;;;;;;4.05;1.75;;;;;;;;;;4967359;28;20699;-70
2022/05/15 09:39:18;;;;;;;4.35;1.90;;;;;;;;;;4961664;28;20232;-71
2022/05/15 09:44:31;;;;;;;4.28;1.50;;;;;;;;;;4957437;28;20704;-71
2022/05/15 09:47:00;;;;;;;5.20;1.90;;;;;;;;;;4974149;28;20303;-71
2022/05/15 09:49:27;;;;;;;3.97;1.70;;;;;;;;;;4972540;28;20267;-71
2022/05/15 09:51:53;;;;;;;3.78;1.88;;;;;;;;;;4993482;28;20221;-71
2022/05/15 09:54:34;;;;;;;3.00;1.60;;;;;;;;;;4964915;28;20284;-70
2022/05/15 09:57:09;;;;;;;5.35;1.67;;;;;;;;;;4960092;28;20796;-71
2022/05/15 09:59:35;;;;;;;4.57;1.85;;;;;;;;;;4981050;28;20343;-71
2022/05/15 10:02:03;;;;;;;3.28;1.58;;;;;;;;;;4967384;28;20213;-71
2022/05/15 10:04:32;;;;;;;3.92;1.70;;;;;;;;;;4960508;28;20225;-70
2022/05/15 10:07:05;;;;;;;3.63;1.75;;;;;;;;;;4943196;28;20226;-71
2022/05/15 10:09:40;;;;;;;3.55;1.50;;;;;;;;;;4980279;28;20244;-72
2022/05/15 10:12:19;;;;;;;3.22;1.80;;;;;;;;;;4959688;28;20365;-71
2022/05/15 10:14:46;;;;;;;2.47;1.50;;;;;;;;;;4967985;28;20233;-71
2022/05/15 10:17:12;;;;;;;3.97;1.67;;;;;;;;;;4966145;28;20221;-71
2022/05/15 10:19:45;;;;;;;4.45;1.83;;;;;;;;;;4982749;28;20276;-72
2022/05/15 10:22:23;;;;;;;3.55;1.95;;;;;;;;;;4967661;28;20224;-72
2022/05/15 10:24:50;;;;;;;3.08;1.45;;;;;;;;;;4927322;28;20221;-71
2022/05/15 10:27:25;;;;;;;4.72;1.73;;;;;;;;;;4964854;28;20228;-72
2022/05/15 10:29:59;;;;;;;3.38;1.48;;;;;;;;;;4966702;28;20216;-73
2022/05/15 10:32:29;;;;;;;4.28;1.65;;;;;;;;;;4962893;28;20260;-73
2022/05/15 10:34:55;;;;;;;5.40;1.63;;;;;;;;;;4967260;28;20237;-73
2022/05/15 10:37:36;;;;;;;4.60;1.75;;;;;;;;;;4975724;28;20225;-72
2022/05/15 10:40:15;;;;;;;3.88;1.50;;;;;;;;;;4984305;28;20216;-73
2022/05/15 10:43:13;;;;;;;2.55;1.40;;;;;;;;;;4973520;28;20250;-72
2022/05/15 10:45:55;;;;;;;4.45;1.70;;;;;;;;;;4994426;28;20228;-72
2022/05/15 10:48:59;;;;;;;3.60;2.50;;;;;;;;;;4955129;28;20217;-75
2022/05/15 10:51:32;;;;;;;3.80;1.92;;;;;;;;;;4980642;28;20279;-73
2022/05/15 10:57:21;;;;;;;2.78;1.50;;;;;;;;;;4987843;28;20332;-72
2022/05/15 10:59:59;;;;;;;4.57;1.80;;;;;;;;;;5000722;28;20261;-72
2022/05/15 11:02:43;;;;;;;3.13;1.85;;;;;;;;;;4994262;28;20637;-72
2022/05/15 11:05:30;;;;;;;4.03;2.40;;;;;;;;;;4989548;28;20209;-73
2022/05/15 11:07:58;;;;;;;3.42;1.90;;;;;;;;;;4980564;28;20719;-73
2022/05/15 11:10:31;;;;;;;4.88;1.73;;;;;;;;;;4997441;28;20217;-74
2022/05/15 11:13:09;;;;;;;3.35;1.60;;;;;;;;;;4980288;28;20225;-74
2022/05/15 11:16:11;;;;;;;4.03;2.00;;;;;;;;;;4992138;28;20695;-72
2022/05/15 11:18:47;;;;;;;4.30;1.80;;;;;;;;;;4996240;28;20229;-73
2022/05/15 11:21:29;;;;;;;3.28;1.83;;;;;;;;;;4977452;28;20327;-72
2022/05/15 11:24:00;;;;;;;5.50;2.20;;;;;;;;;;4998896;28;20229;-72
2022/05/15 11:26:39;;;;;;;3.30;1.55;;;;;;;;;;4964068;28;20220;-73
2022/05/15 11:29:10;;;;;;;3.42;1.80;;;;;;;;;;4962931;28;20228;-73
2022/05/15 11:31:37;;;;;;;2.95;1.50;;;;;;;;;;4962997;28;20217;-73
2022/05/15 11:34:06;;;;;;;5.28;1.77;;;;;;;;;;4975875;28;20234;-73
2022/05/15 11:36:35;;;;;;;4.63;1.63;;;;;;;;;;4962207;28;20366;-72
2022/05/15 11:39:05;;;;;;;4.68;1.55;;;;;;;;;;4979631;28;20233;-73
2022/05/15 11:41:34;;;;;;;5.50;1.92;;;;;;;;;;4982105;28;20780;-73
2022/05/15 11:44:07;;;;;;;4.65;1.65;;;;;;;;;;4958673;28;20907;-72
2022/05/15 11:46:48;;;;;;;2.92;1.40;;;;;;;;;;4943127;28;20245;-72
2022/05/15 11:49:39;;;;;;;2.58;1.58;;;;;;;;;;4964046;28;20218;-72
2022/05/15 11:52:12;;;;;;;2.95;1.60;;;;;;;;;;4971531;28;20226;-73
2022/05/15 11:54:45;;;;;;;3.90;1.60;;;;;;;;;;4980234;28;20229;-73
2022/05/15 11:57:36;;;;;;;3.53;1.70;;;;;;;;;;4955969;28;20240;-75
2022/05/15 12:00:06;;;;;;;3.92;1.83;;;;;;;;;;4972122;28;20221;-73
2022/05/15 12:02:35;;;;;;;3.60;1.70;;;;;;;;;;4984717;28;20608;-72
2022/05/15 12:05:23;;;;;;;3.50;1.38;;;;;;;;;;4993049;28;20286;-72
2022/05/15 12:07:54;;;;;;;3.03;1.52;;;;;;;;;;4954497;28;20232;-74
2022/05/15 12:10:40;;;;;;;3.97;1.45;;;;;;;;;;4952875;28;20642;-72
2022/05/15 12:13:28;;;;;;;3.60;1.80;;;;;;;;;;4974556;28;20234;-73
2022/05/15 12:16:22;;;;;;;4.00;1.58;;;;;;;;;;4964253;28;20331;-73
2022/05/15 12:19:00;;;;;;;4.60;1.60;;;;;;;;;;4973533;28;20221;-73
2022/05/15 12:21:52;;;;;;;2.80;1.63;;;;;;;;;;4970053;28;20238;-72
2022/05/15 12:24:27;;;;;;;3.38;1.50;;;;;;;;;;4965247;28;20241;-74
2022/05/15 12:27:20;;;;;;;3.08;1.50;;;;;;;;;;4959720;28;20324;-73
2022/05/15 12:30:00;;;;;;;4.05;1.60;;;;;;;;;;4970834;28;20279;-72
2022/05/15 12:32:38;;;;;;;2.67;1.50;;;;;;;;;;4975745;28;20224;-73
2022/05/15 12:35:15;;;;;;;4.57;1.55;;;;;;;;;;4976399;28;20299;-70
2022/05/15 12:38:07;;;;;;;3.58;1.70;;;;;;;;;;5000329;28;20233;-72
2022/05/15 12:40:40;;;;;;;5.20;2.03;;;;;;;;;;4981300;28;20603;-72
2022/05/15 12:43:44;;;;;;;4.70;1.70;;;;;;;;;;4948982;28;20774;-73
2022/05/15 12:46:32;;;;;;;3.75;1.83;;;;;;;;;;4910160;28;20226;-72
2022/05/15 12:49:01;;;;;;;4.03;1.80;;;;;;;;;;4974314;28;20232;-72
2022/05/15 12:51:36;;;;;;;3.13;1.70;;;;;;;;;;4960050;28;20218;-73
2022/05/15 12:54:20;;;;;;;4.40;1.85;;;;;;;;;;4963606;28;20235;-72
2022/05/15 12:56:50;;;;;;;3.95;1.60;;;;;;;;;;4951203;28;20241;-72
2022/05/15 12:59:18;;;;;;;5.05;2.00;;;;;;;;;;4938602;28;20222;-72
2022/05/15 13:01:47;;;;;;;3.13;1.90;;;;;;;;;;4955083;28;20925;-72
2022/05/15 13:04:17;;;;;;;3.13;1.70;;;;;;;;;;4930967;28;20237;-72
2022/05/15 13:06:53;;;;;;;4.45;1.73;;;;;;;;;;4956267;28;20689;-73
2022/05/15 13:09:28;;;;;;;4.32;1.77;;;;;;;;;;4957344;28;20724;-73
2022/05/15 13:11:58;;;;;;;3.17;1.58;;;;;;;;;;4952484;28;20217;-72
2022/05/15 13:14:37;;;;;;;3.35;1.73;;;;;;;;;;4923702;28;1077307;-72
2022/05/15 13:17:04;;;;;;;5.03;1.90;;;;;;;;;;4959034;28;20282;-72
2022/05/15 13:19:33;;;;;;;7.13;1.95;;;;;;;;;;4935886;28;20244;-72
2022/05/15 13:21:59;;;;;;;2.97;1.40;;;;;;;;;;4962853;28;20230;-73
2022/05/15 13:24:25;;;;;;;2.50;1.60;;;;;;;;;;4974155;28;20217;-72
2022/05/15 13:26:54;;;;;;;6.82;1.90;;;;;;;;;;4974040;28;20288;-73
2022/05/15 13:29:22;;;;;;;3.28;1.80;;;;;;;;;;4978580;28;20225;-73
2022/05/15 13:31:49;;;;;;;4.68;1.70;;;;;;;;;;4961344;28;20213;-73
2022/05/15 13:34:16;;;;;;;3.28;1.88;;;;;;;;;;4964997;28;20615;-73
2022/05/15 13:37:11;;;;;;;6.97;2.08;;;;;;;;;;4955659;28;20239;-73
2022/05/15 13:45:13;;;;;;;4.68;1.60;;;;;;;;;;4957250;28;20271;-73
2022/05/15 13:48:19;;;;;;;2.97;1.60;;;;;;;;;;4982939;28;20317;-73
2022/05/15 13:50:52;;;;;;;3.85;1.80;;;;;;;;;;4882644;29;20610;-73
2022/05/15 13:53:33;;;;;;;3.35;1.98;;;;;;;;;;4905360;29;20231;-73
2022/05/15 13:56:06;;;;;;;3.25;1.60;;;;;;;;;;4942555;28;20244;-72
2022/05/15 13:58:45;;;;;;;2.88;1.60;;;;;;;;;;4955169;28;20589;-72
2022/05/15 14:01:18;;;;;;;2.97;1.65;;;;;;;;;;4980055;28;20881;-73
2022/05/15 14:03:51;;;;;;;5.00;1.95;;;;;;;;;;4982513;28;20258;-73
2022/05/15 14:06:28;;;;;;;3.60;1.63;;;;;;;;;;4943234;28;20746;-72
2022/05/15 14:09:08;;;;;;;2.45;1.50;;;;;;;;;;4998086;28;20229;-72
2022/05/15 14:11:59;;;;;;;3.42;1.70;;;;;;;;;;4980972;28;20745;-72
2022/05/15 14:14:49;;;;;;;2.80;1.58;;;;;;;;;;4948432;28;20306;-73
2022/05/15 14:17:18;;;;;;;3.03;1.90;;;;;;;;;;4980852;28;20237;-72
2022/05/15 14:19:49;;;;;;;3.78;1.80;;;;;;;;;;4972189;28;20269;-72
2022/05/15 14:22:15;;;;;;;3.75;1.55;;;;;;;;;;4966530;28;20247;-72
2022/05/15 14:24:43;;;;;;;3.67;1.70;;;;;;;;;;4976759;28;20596;-72
2022/05/15 14:27:10;;;;;;;4.20;1.90;;;;;;;;;;4975536;28;20437;-73
2022/05/15 14:29:39;;;;;;;3.25;1.60;;;;;;;;;;4957926;28;20721;-71
2022/05/15 14:32:06;;;;;;;2.65;1.50;;;;;;;;;;4981859;28;20228;-73
2022/05/15 14:34:35;;;;;;;4.05;1.60;;;;;;;;;;4969363;28;20797;-73
2022/05/15 14:37:03;;;;;;;3.33;1.65;;;;;;;;;;4964648;28;20237;-73
2022/05/15 14:39:28;;;;;;;3.42;1.55;;;;;;;;;;4971454;28;20236;-73
2022/05/15 14:41:58;;;;;;;3.78;1.40;;;;;;;;;;4981742;28;20708;-73
2022/05/15 14:44:27;;;;;;;3.05;1.65;;;;;;;;;;4980179;28;20225;-73
2022/05/15 14:46:55;;;;;;;4.28;1.55;;;;;;;;;;4976597;28;20222;-71
2022/05/15 14:49:21;;;;;;;2.78;1.50;;;;;;;;;;4980911;28;20213;-72
2022/05/15 14:51:46;;;;;;;4.65;1.70;;;;;;;;;;4948730;28;20225;-72
2022/05/15 14:54:13;;;;;;;5.15;1.70;;;;;;;;;;4974308;28;20304;-72
2022/05/15 14:56:38;;;;;;;3.90;2.03;;;;;;;;;;4964038;28;20214;-73
2022/05/15 14:59:11;;;;;;;4.00;1.55;;;;;;;;;;4963263;28;20225;-73
2022/05/15 15:01:41;;;;;;;3.88;1.52;;;;;;;;;;4962920;28;20271;-72
2022/05/15 15:04:10;;;;;;;2.95;1.50;;;;;;;;;;4957422;28;20209;-72
2022/05/15 15:06:37;;;;;;;2.67;1.60;;;;;;;;;;4962658;28;20727;-73
2022/05/15 15:09:08;;;;;;;5.20;1.67;;;;;;;;;;4977938;28;20217;-75
2022/05/15 15:11:36;;;;;;;4.72;1.77;;;;;;;;;;4972960;28;21137;-73
2022/05/15 15:14:04;;;;;;;5.72;1.50;;;;;;;;;;4953250;28;20228;-73
2022/05/15 15:16:31;;;;;;;2.85;1.50;;;;;;;;;;4964007;28;20341;-73
2022/05/15 15:18:59;;;;;;;3.67;1.60;;;;;;;;;;4954807;28;20625;-73
2022/05/15 15:21:28;;;;;;;2.45;1.73;;;;;;;;;;4976615;28;20236;-72
2022/05/15 15:23:54;;;;;;;3.47;1.70;;;;;;;;;;4989243;28;20308;-72